createdAt,value
2018-03-24T00:00:48.052Z,76.67
2018-03-24T00:03:15.514Z,72.37
2018-03-24T00:05:44.473Z,72.60
2018-03-24T00:08:11.934Z,76.07
2018-03-24T00:10:39.399Z,73.60
2018-03-24T00:13:07.634Z,76.50
2018-03-24T00:15:35.090Z,78.97
2018-03-24T00:18:03.323Z,83.23
2018-03-24T00:20:30.822Z,77.30
2018-03-24T00:22:59.060Z,74.80
2018-03-24T00:25:27.292Z,80.40
2018-03-24T00:27:54.734Z,76.83
2018-03-24T00:30:22.213Z,80.40
2018-03-24T00:32:49.713Z,71.27
2018-03-24T00:35:17.445Z,76.73
2018-03-24T00:37:44.917Z,69.03
2018-03-24T00:40:12.390Z,76.93
2018-03-24T00:42:39.850Z,68.80
2018-03-24T00:45:07.326Z,74.97
2018-03-24T00:47:34.810Z,83.53
2018-03-24T00:50:02.271Z,73.23
2018-03-24T00:52:29.750Z,74.93
2018-03-24T00:54:57.187Z,67.33
2018-03-24T00:57:24.659Z,74.70
2018-03-24T00:59:52.114Z,76.27
2018-03-24T01:02:19.573Z,71.90
2018-03-24T01:04:47.034Z,68.63
2018-03-24T01:07:14.495Z,75.90
2018-03-24T01:09:41.953Z,72.87
2018-03-24T01:12:10.168Z,73.63
2018-03-24T01:14:37.635Z,78.83
2018-03-24T01:17:05.854Z,71.03
2018-03-24T01:19:33.342Z,74.83
2018-03-24T01:22:00.798Z,73.33
2018-03-24T01:24:28.253Z,74.73
2018-03-24T01:26:55.730Z,80.10
2018-03-24T01:29:23.221Z,79.33
2018-03-24T01:31:50.682Z,77.93
2018-03-24T01:34:18.918Z,78.30
2018-03-24T01:36:46.387Z,76.00
2018-03-24T01:39:13.841Z,82.17
2018-03-24T01:41:41.321Z,73.60
2018-03-24T01:44:09.550Z,75.37
2018-03-24T01:46:37.006Z,78.50
2018-03-24T01:49:04.470Z,75.23
2018-03-24T01:51:31.923Z,73.83
2018-03-24T01:53:59.390Z,83.60
2018-03-24T01:56:26.854Z,80.93
2018-03-24T01:58:54.317Z,81.07
2018-03-24T02:01:21.794Z,69.47
2018-03-24T02:03:49.249Z,78.67
2018-03-24T02:06:17.490Z,73.03
2018-03-24T02:08:45.711Z,75.37
2018-03-24T02:11:13.190Z,69.93
2018-03-24T02:13:40.685Z,76.20
2018-03-24T02:16:08.133Z,76.97
2018-03-24T02:18:35.590Z,76.03
2018-03-24T02:21:14.777Z,79.20
2018-03-24T02:23:42.238Z,77.40
2018-03-24T02:26:09.702Z,73.07
2018-03-24T02:28:37.953Z,74.83
2018-03-24T02:31:06.166Z,70.97
2018-03-24T02:33:33.639Z,74.73
2018-03-24T02:36:01.082Z,74.77
2018-03-24T02:38:28.559Z,81.17
2018-03-24T02:40:56.023Z,73.80
2018-03-24T02:43:24.244Z,76.60
2018-03-24T02:45:51.812Z,75.13
2018-03-24T02:48:19.273Z,90.30
2018-03-24T02:50:46.716Z,74.80
2018-03-24T02:53:14.178Z,79.33
2018-03-24T02:55:41.629Z,79.67
2018-03-24T02:58:09.865Z,79.67
2018-03-24T03:00:38.154Z,77.10
2018-03-24T03:03:07.125Z,79.97
2018-03-24T03:05:34.586Z,94.93
2018-03-24T03:08:02.810Z,83.37
2018-03-24T03:10:30.264Z,83.20
2018-03-24T03:12:57.721Z,80.73
2018-03-24T03:15:25.173Z,77.30
2018-03-24T03:17:53.394Z,91.57
2018-03-24T03:20:20.857Z,81.90
2018-03-24T03:22:48.341Z,83.20
2018-03-24T03:25:15.798Z,85.03
2018-03-24T03:27:43.258Z,72.93
2018-03-24T03:33:28.833Z,89.57
2018-03-24T03:35:56.291Z,75.80
2018-03-24T03:38:23.769Z,89.40
2018-03-24T03:40:51.230Z,83.13
2018-03-24T03:43:18.701Z,90.60
2018-03-24T03:45:46.920Z,84.57
2018-03-24T03:48:14.374Z,78.60
2018-03-24T03:50:42.605Z,76.23
2018-03-24T03:53:10.822Z,87.07
2018-03-24T03:55:38.302Z,92.03
2018-03-24T03:58:05.762Z,86.90
2018-03-24T04:00:33.221Z,77.37
2018-03-24T04:03:00.678Z,88.30
2018-03-24T04:05:28.133Z,90.87
2018-03-24T04:07:56.357Z,83.53
2018-03-24T04:10:24.649Z,76.37
2018-03-24T04:12:52.097Z,77.87
2018-03-24T04:15:20.334Z,80.37
2018-03-24T04:17:47.793Z,84.57
2018-03-24T04:20:15.265Z,81.33
2018-03-24T04:22:43.498Z,79.80
2018-03-24T04:25:10.965Z,78.47
2018-03-24T04:27:38.422Z,83.00
2018-03-24T04:30:05.890Z,82.87
2018-03-24T04:32:33.361Z,85.23
2018-03-24T04:35:00.820Z,78.20
2018-03-24T04:37:28.291Z,81.00
2018-03-24T04:39:56.529Z,71.77
2018-03-24T04:42:23.990Z,73.70
2018-03-24T04:44:52.222Z,79.30
2018-03-24T04:47:19.674Z,77.20
2018-03-24T04:49:47.128Z,78.43
2018-03-24T04:52:15.362Z,76.03
2018-03-24T04:54:42.822Z,81.70
2018-03-24T04:57:10.285Z,78.57
2018-03-24T04:59:37.741Z,81.70
2018-03-24T05:02:05.205Z,86.13
2018-03-24T05:04:34.181Z,89.33
2018-03-24T05:07:01.673Z,87.13
2018-03-24T05:09:29.900Z,81.77
2018-03-24T05:11:57.388Z,84.97
2018-03-24T05:14:24.871Z,88.17
2018-03-24T05:16:53.096Z,78.27
2018-03-24T05:19:20.553Z,73.03
2018-03-24T05:21:48.022Z,78.33
2018-03-24T05:24:15.478Z,80.80
2018-03-24T05:26:42.938Z,86.37
2018-03-24T05:29:10.397Z,78.10
2018-03-24T05:31:38.617Z,72.07
2018-03-24T05:34:06.078Z,86.63
2018-03-24T05:36:33.551Z,74.67
2018-03-24T05:39:01.779Z,78.03
2018-03-24T05:41:29.229Z,78.10
2018-03-24T05:43:56.702Z,74.73
2018-03-24T05:46:24.154Z,76.07
2018-03-24T05:48:51.623Z,78.33
2018-03-24T05:51:19.078Z,76.63
2018-03-24T05:53:47.306Z,74.17
2018-03-24T05:56:14.790Z,76.30
2018-03-24T05:58:42.248Z,74.03
2018-03-24T06:01:09.701Z,74.50
2018-03-24T06:03:37.173Z,80.00
2018-03-24T06:06:05.414Z,79.73
2018-03-24T06:08:32.877Z,78.57
2018-03-24T06:11:00.350Z,82.47
2018-03-24T06:13:29.322Z,76.70
2018-03-24T06:15:56.894Z,80.63
2018-03-24T06:18:25.133Z,82.17
2018-03-24T06:20:52.653Z,78.17
2018-03-24T06:23:20.890Z,81.50
2018-03-24T06:25:48.354Z,89.93
2018-03-24T06:28:16.582Z,71.57
2018-03-24T06:30:45.713Z,76.00
2018-03-24T06:33:13.220Z,80.20
2018-03-24T06:35:40.690Z,77.30
2018-03-24T06:38:08.177Z,81.67
2018-03-24T06:40:35.613Z,75.37
2018-03-24T06:43:03.069Z,75.17
2018-03-24T06:45:31.295Z,74.60
2018-03-24T06:47:58.761Z,75.43
2018-03-24T06:50:26.222Z,75.10
2018-03-24T06:52:53.706Z,71.57
2018-03-24T06:55:22.582Z,72.37
2018-03-24T06:57:51.410Z,70.47
2018-03-24T07:00:18.859Z,69.40
2018-03-24T07:02:46.327Z,73.83
2018-03-24T07:05:13.806Z,67.80
2018-03-24T07:07:41.294Z,66.60
2018-03-24T07:10:08.725Z,64.07
2018-03-24T07:12:36.190Z,65.80
2018-03-24T07:15:03.658Z,62.60
2018-03-24T07:17:31.130Z,66.43
2018-03-24T07:19:58.596Z,71.00
2018-03-24T07:22:26.821Z,59.23
2018-03-24T07:24:55.046Z,62.53
2018-03-24T07:27:23.272Z,54.33
2018-03-24T07:29:50.755Z,55.40
2018-03-24T07:32:18.205Z,58.60
2018-03-24T07:34:46.468Z,53.20
2018-03-24T07:37:13.925Z,57.07
2018-03-24T07:39:41.394Z,53.20
2018-03-24T07:42:08.858Z,49.57
2018-03-24T07:44:36.330Z,51.40
2018-03-24T07:47:03.785Z,50.87
2018-03-24T07:49:32.350Z,49.87
2018-03-24T07:51:59.814Z,47.90
2018-03-24T07:54:27.289Z,51.40
2018-03-24T07:56:54.741Z,48.07
2018-03-24T07:59:22.211Z,47.47
2018-03-24T08:01:49.666Z,43.73
2018-03-24T08:04:17.182Z,45.77
2018-03-24T08:06:45.359Z,46.40
2018-03-24T08:09:12.831Z,46.77
2018-03-24T08:11:40.291Z,46.67
2018-03-24T08:14:07.762Z,43.87
2018-03-24T08:16:35.222Z,45.20
2018-03-24T08:19:03.457Z,48.83
2018-03-24T08:21:30.931Z,49.57
2018-03-24T08:23:58.397Z,47.67
2018-03-24T08:26:25.871Z,49.03
2018-03-24T08:28:54.086Z,48.77
2018-03-24T08:31:21.564Z,49.93
2018-03-24T08:33:49.056Z,48.10
2018-03-24T08:36:16.482Z,47.07
2018-03-24T08:38:43.937Z,43.60
2018-03-24T08:41:11.422Z,51.70
2018-03-24T08:43:44.644Z,51.93
2018-03-24T08:46:12.881Z,52.60
2018-03-24T08:48:40.341Z,55.43
2018-03-24T08:51:07.821Z,58.63
2018-03-24T08:53:35.290Z,58.40
2018-03-24T08:56:03.534Z,54.30
2018-03-24T08:58:31.002Z,56.00
2018-03-24T09:00:58.469Z,58.10
2018-03-24T09:03:25.957Z,51.70
2018-03-24T09:05:53.387Z,53.10
2018-03-24T09:08:20.841Z,51.63
2018-03-24T09:10:48.298Z,43.97
2018-03-24T09:13:15.759Z,48.70
2018-03-24T09:15:43.217Z,46.50
2018-03-24T09:18:11.441Z,43.10
2018-03-24T09:20:38.901Z,45.73
2018-03-24T09:23:06.361Z,43.73
2018-03-24T09:25:34.605Z,46.97
2018-03-24T09:28:02.137Z,45.17
2018-03-24T09:30:29.550Z,46.33
2018-03-24T09:32:57.017Z,42.63
2018-03-24T09:35:24.474Z,50.93
2018-03-24T09:37:51.940Z,42.20
2018-03-24T09:40:19.402Z,42.73
2018-03-24T09:42:46.882Z,45.50
2018-03-24T09:45:14.338Z,42.37
2018-03-24T09:47:41.797Z,44.67
2018-03-24T09:50:09.254Z,48.57
2018-03-24T09:52:38.221Z,46.40
2018-03-24T09:55:05.677Z,41.73
2018-03-24T09:57:33.217Z,51.57
2018-03-24T10:00:00.673Z,51.40
2018-03-24T10:02:28.132Z,49.33
2018-03-24T10:04:55.585Z,48.77
2018-03-24T10:07:23.044Z,44.30
2018-03-24T10:09:50.501Z,47.60
2018-03-24T10:12:17.977Z,48.30
2018-03-24T10:14:45.432Z,45.17
2018-03-24T10:17:12.901Z,53.23
2018-03-24T10:19:41.113Z,44.87
2018-03-24T10:22:21.310Z,46.17
2018-03-24T10:24:48.762Z,46.50
2018-03-24T10:27:16.233Z,48.77
2018-03-24T10:29:43.702Z,47.43
2018-03-24T10:32:11.169Z,49.23
2018-03-24T10:34:38.639Z,49.57
2018-03-24T10:37:06.093Z,54.47
2018-03-24T10:39:33.553Z,50.93
2018-03-24T10:42:01.012Z,43.43
2018-03-24T10:44:29.238Z,41.60
2018-03-24T10:46:56.722Z,47.40
2018-03-24T10:49:24.190Z,42.60
2018-03-24T10:51:51.665Z,47.30
2018-03-24T10:54:19.125Z,39.73
2018-03-24T10:56:47.359Z,43.93
2018-03-24T10:59:14.825Z,43.80
2018-03-24T11:01:42.281Z,38.07
2018-03-24T11:04:09.799Z,42.80
2018-03-24T11:06:38.002Z,44.80
2018-03-24T11:09:05.476Z,40.67
2018-03-24T11:11:32.934Z,38.90
2018-03-24T11:14:00.410Z,42.37
2018-03-24T11:16:28.635Z,44.43
2018-03-24T11:18:56.110Z,42.03
2018-03-24T11:21:23.577Z,42.60
2018-03-24T11:23:51.053Z,41.70
2018-03-24T11:26:18.501Z,46.00
2018-03-24T11:28:45.969Z,42.57
2018-03-24T11:31:13.425Z,44.63
2018-03-24T11:33:40.887Z,39.40
2018-03-24T11:36:08.342Z,42.33
2018-03-24T11:38:35.798Z,39.80
2018-03-24T11:41:03.257Z,38.40
2018-03-24T11:43:30.729Z,34.23
2018-03-24T11:45:58.973Z,35.60
2018-03-24T11:48:27.209Z,29.70
2018-03-24T11:50:54.672Z,31.07
2018-03-24T11:53:27.937Z,31.90
2018-03-24T11:55:56.158Z,30.00
2018-03-24T11:58:23.629Z,25.90
2018-03-24T12:00:51.845Z,29.70
2018-03-24T12:03:20.093Z,27.07
2018-03-24T12:05:47.554Z,26.63
2018-03-24T12:08:15.028Z,22.10
2018-03-24T12:10:42.544Z,23.53
2018-03-24T12:13:10.032Z,22.60
2018-03-24T12:15:37.490Z,26.40
2018-03-24T12:18:04.955Z,24.73
2018-03-24T12:20:33.194Z,20.93
2018-03-24T12:23:00.649Z,16.73
2018-03-24T12:25:28.134Z,24.30
2018-03-24T12:27:55.583Z,16.90
2018-03-24T12:30:23.049Z,17.17
2018-03-24T12:32:50.509Z,16.60
2018-03-24T12:35:18.003Z,15.70
2018-03-24T12:37:45.466Z,14.83
2018-03-24T12:40:13.692Z,15.97
2018-03-24T12:42:41.142Z,16.70
2018-03-24T12:45:08.601Z,15.40
2018-03-24T12:47:36.054Z,14.80
2018-03-24T12:50:03.525Z,13.50
2018-03-24T12:52:31.008Z,13.33
2018-03-24T12:54:59.250Z,23.27
2018-03-24T12:57:26.709Z,12.93
2018-03-24T12:59:54.161Z,14.77
2018-03-24T13:02:21.632Z,11.80
2018-03-24T13:04:49.083Z,13.80
2018-03-24T13:07:16.600Z,13.40
2018-03-24T13:09:44.058Z,12.70
2018-03-24T13:12:12.397Z,18.43
2018-03-24T13:14:39.870Z,14.70
2018-03-24T13:17:07.317Z,17.10
2018-03-24T13:19:34.778Z,10.00
2018-03-24T13:22:02.273Z,16.17
2018-03-24T13:24:29.735Z,12.93
2018-03-24T13:26:57.201Z,17.40
2018-03-24T13:29:24.645Z,12.93
2018-03-24T13:31:52.116Z,9.93
2018-03-24T13:34:19.583Z,11.00
2018-03-24T13:36:47.062Z,12.93
2018-03-24T13:39:14.527Z,11.17
2018-03-24T13:41:41.978Z,14.23
2018-03-24T13:44:09.437Z,13.30
2018-03-24T13:46:36.897Z,15.20
2018-03-24T13:49:04.347Z,15.10
2018-03-24T13:51:31.805Z,14.90
2018-03-24T13:53:59.266Z,19.23
2018-03-24T13:56:26.721Z,14.53
2018-03-24T13:58:54.177Z,13.93
2018-03-24T14:01:21.633Z,12.93
2018-03-24T14:03:49.854Z,11.93
2018-03-24T14:06:18.077Z,18.27
2018-03-24T14:08:45.537Z,14.97
2018-03-24T14:11:12.981Z,13.60
2018-03-24T14:13:40.437Z,12.90
2018-03-24T14:16:07.915Z,18.23
2018-03-24T14:18:35.369Z,18.10
2018-03-24T14:21:02.820Z,14.43
2018-03-24T14:23:30.281Z,12.83
2018-03-24T14:25:57.733Z,13.50
2018-03-24T14:28:25.197Z,13.43
2018-03-24T14:30:52.645Z,15.43
2018-03-24T14:33:20.117Z,12.87
2018-03-24T14:35:47.565Z,11.10
2018-03-24T14:38:15.790Z,17.07
2018-03-24T14:40:44.029Z,19.97
2018-03-24T14:43:11.489Z,12.83
2018-03-24T14:45:38.937Z,12.20
2018-03-24T14:48:06.399Z,13.03
2018-03-24T14:50:34.629Z,17.77
2018-03-24T14:53:03.037Z,11.63
2018-03-24T14:55:30.496Z,28.50
2018-03-24T14:57:57.980Z,38.50
2018-03-24T15:00:25.438Z,37.90
2018-03-24T15:02:52.901Z,40.87
2018-03-24T15:05:21.134Z,40.77
2018-03-24T15:07:48.601Z,41.50
2018-03-24T15:10:16.058Z,43.60
2018-03-24T15:12:43.509Z,40.03
2018-03-24T15:15:10.977Z,45.77
2018-03-24T15:17:38.445Z,41.73
2018-03-24T15:20:05.913Z,44.73
2018-03-24T15:22:33.377Z,43.50
2018-03-24T15:25:00.895Z,44.10
2018-03-24T15:27:29.077Z,39.30
2018-03-24T15:30:09.233Z,40.67
2018-03-24T15:32:48.465Z,41.80
2018-03-24T15:35:27.852Z,44.90
2018-03-24T15:37:55.316Z,41.40
2018-03-24T15:40:22.799Z,44.87
2018-03-24T15:42:51.172Z,43.37
2018-03-24T15:45:18.655Z,44.07
2018-03-24T15:47:46.113Z,43.13
2018-03-24T15:50:13.593Z,52.10
2018-03-24T15:52:41.045Z,53.93
2018-03-24T15:55:08.517Z,52.40
2018-03-24T15:57:35.974Z,50.93
2018-03-24T16:00:03.443Z,51.07
2018-03-24T16:02:31.677Z,49.80
2018-03-24T16:04:59.149Z,49.37
2018-03-24T16:07:26.606Z,47.10
2018-03-24T16:09:54.070Z,47.67
2018-03-24T16:12:21.522Z,50.87
2018-03-24T16:14:48.982Z,51.63
2018-03-24T16:17:16.438Z,48.97
2018-03-24T16:19:43.946Z,43.50
2018-03-24T16:22:12.162Z,47.10
2018-03-24T16:24:40.383Z,47.80
2018-03-24T16:27:07.904Z,48.00
2018-03-24T16:29:35.362Z,41.90
2018-03-24T16:32:02.849Z,44.33
2018-03-24T16:34:31.079Z,42.10
2018-03-24T16:36:58.557Z,42.17
2018-03-24T16:39:26.013Z,38.60
2018-03-24T16:41:53.490Z,50.87
2018-03-24T16:44:20.933Z,35.53
2018-03-24T16:46:48.397Z,38.07
2018-03-24T16:49:15.875Z,37.03
2018-03-24T16:51:44.096Z,31.70
2018-03-24T16:54:11.577Z,38.57
2018-03-24T16:56:39.737Z,36.53
2018-03-24T16:59:07.186Z,48.60
2018-03-24T17:01:34.646Z,46.03
2018-03-24T17:04:02.096Z,47.37
2018-03-24T17:06:29.558Z,53.73
2018-03-24T17:08:57.014Z,53.53
2018-03-24T17:11:24.474Z,57.40
2018-03-24T17:13:51.929Z,55.70
2018-03-24T17:16:19.393Z,75.27
2018-03-24T17:18:46.850Z,64.00
2018-03-24T17:21:14.334Z,64.87
2018-03-24T17:23:41.804Z,63.30
2018-03-24T17:26:09.266Z,56.13
2018-03-24T17:28:36.727Z,62.33
2018-03-24T17:31:04.945Z,62.40
2018-03-24T17:33:32.413Z,60.13
2018-03-24T17:35:59.861Z,64.40
2018-03-24T17:38:27.326Z,53.90
2018-03-24T17:40:54.785Z,60.03
2018-03-24T17:43:22.251Z,66.73
2018-03-24T17:45:49.706Z,65.90
2018-03-24T17:48:17.208Z,63.10
2018-03-24T17:50:45.385Z,61.83
2018-03-24T17:53:13.618Z,54.83
2018-03-24T17:55:41.126Z,54.90
2018-03-24T17:58:08.555Z,55.20
2018-03-24T18:00:36.035Z,67.73
2018-03-24T18:03:04.270Z,52.70
2018-03-24T18:05:31.724Z,51.83
2018-03-24T18:07:59.190Z,57.77
2018-03-24T18:10:26.643Z,49.00
2018-03-24T18:12:54.865Z,49.70
2018-03-24T18:15:22.313Z,49.53
2018-03-24T18:17:50.568Z,50.27
2018-03-24T18:20:18.041Z,49.20
2018-03-24T18:22:45.494Z,59.43
2018-03-24T18:25:12.986Z,55.97
2018-03-24T18:27:40.442Z,50.77
2018-03-24T18:30:07.955Z,50.03
2018-03-24T18:32:35.426Z,58.17
2018-03-24T18:35:02.880Z,47.60
2018-03-24T18:37:30.338Z,52.23
2018-03-24T18:39:57.793Z,51.40
2018-03-24T18:42:25.253Z,48.70
2018-03-24T18:44:52.710Z,45.27
2018-03-24T18:47:20.166Z,51.27
2018-03-24T18:49:47.629Z,48.97
2018-03-24T18:52:15.089Z,41.10
2018-03-24T18:54:42.537Z,43.33
2018-03-24T18:57:09.993Z,43.63
2018-03-24T18:59:37.445Z,47.70
2018-03-24T19:02:04.909Z,41.90
2018-03-24T19:04:32.366Z,41.60
2018-03-24T19:06:59.821Z,42.03
2018-03-24T19:09:27.290Z,45.87
2018-03-24T19:11:55.518Z,39.70
2018-03-24T19:14:22.981Z,45.70
2018-03-24T19:16:50.437Z,39.43
2018-03-24T19:19:17.906Z,41.63
2018-03-24T19:21:45.358Z,41.70
2018-03-24T19:24:12.833Z,38.80
2018-03-24T19:26:40.277Z,38.43
2018-03-24T19:29:07.770Z,43.60
2018-03-24T19:31:35.225Z,41.23
2018-03-24T19:34:02.694Z,36.47
2018-03-24T19:36:30.941Z,41.80
2018-03-24T19:38:58.591Z,37.13
2018-03-24T19:41:26.900Z,32.40
2018-03-24T19:43:54.334Z,35.40
2018-03-24T19:46:21.797Z,33.33
2018-03-24T19:48:49.257Z,34.07
2018-03-24T19:51:16.726Z,42.13
2018-03-24T19:53:44.181Z,40.53
2018-03-24T19:56:11.641Z,41.10
2018-03-24T19:58:39.149Z,36.70
2018-03-24T20:01:06.614Z,34.87
2018-03-24T20:03:34.073Z,32.37
2018-03-24T20:06:01.553Z,34.53
2018-03-24T20:08:29.018Z,38.67
2018-03-24T20:10:56.489Z,39.47
2018-03-24T20:13:24.712Z,38.70
2018-03-24T20:15:52.173Z,31.27
2018-03-24T20:18:19.630Z,29.00
2018-03-24T20:20:47.081Z,30.20
2018-03-24T20:23:14.549Z,30.70
2018-03-24T20:25:42.016Z,30.70
2018-03-24T20:28:09.513Z,28.47
2018-03-24T20:30:36.968Z,29.07
2018-03-24T20:33:04.435Z,35.33
2018-03-24T20:35:32.682Z,33.30
2018-03-24T20:38:00.901Z,29.40
2018-03-24T20:40:28.365Z,31.27
2018-03-24T20:42:56.741Z,37.50
2018-03-24T20:45:24.198Z,36.83
2018-03-24T20:47:52.426Z,42.43
2018-03-24T20:50:19.906Z,46.93
2018-03-24T20:52:48.129Z,53.30
2018-03-24T20:55:16.381Z,50.03
2018-03-24T20:57:43.837Z,54.90
2018-03-24T21:00:12.065Z,59.53
2018-03-24T21:02:39.522Z,56.90
2018-03-24T21:05:07.771Z,61.37
2018-03-24T21:07:35.234Z,64.10
2018-03-24T21:10:04.610Z,63.60
2018-03-24T21:12:32.077Z,55.80
2018-03-24T21:14:59.576Z,60.03
2018-03-24T21:17:27.058Z,59.30
2018-03-24T21:19:54.509Z,57.30
2018-03-24T21:22:21.994Z,58.03
2018-03-24T21:24:49.448Z,61.43
2018-03-24T21:27:17.677Z,54.10
2018-03-24T21:29:45.161Z,56.30
2018-03-24T21:32:12.633Z,52.20
2018-03-24T21:34:40.866Z,52.80
2018-03-24T21:37:08.328Z,55.17
2018-03-24T21:39:36.550Z,56.20
2018-03-24T21:42:04.728Z,45.70
2018-03-24T21:44:32.184Z,45.83
2018-03-24T21:47:00.465Z,52.57
2018-03-24T21:49:27.913Z,44.40
2018-03-24T21:51:56.144Z,38.33
2018-03-24T21:54:23.601Z,37.80
2018-03-24T21:56:51.081Z,45.00
2018-03-24T21:59:18.546Z,38.80
2018-03-24T22:01:46.005Z,38.27
2018-03-24T22:04:14.230Z,38.17
2018-03-24T22:06:41.695Z,39.07
2018-03-24T22:11:43.870Z,41.80
2018-03-24T22:14:11.429Z,40.97
2018-03-24T22:16:38.927Z,40.00
2018-03-24T22:19:07.141Z,38.70
2018-03-24T22:21:34.640Z,36.00
2018-03-24T22:24:02.133Z,28.73
2018-03-24T22:26:30.361Z,34.67
2018-03-24T22:28:57.829Z,30.73
2018-03-24T22:31:25.278Z,20.97
2018-03-24T22:33:52.761Z,29.30
2018-03-24T22:38:54.169Z,23.73
2018-03-24T22:41:21.626Z,15.93
2018-03-24T22:43:49.102Z,30.17
2018-03-24T22:46:16.562Z,20.17
2018-03-24T22:48:44.037Z,25.00
2018-03-24T22:51:11.498Z,23.10
2018-03-24T22:53:38.953Z,20.73
2018-03-24T22:56:06.413Z,16.27
2018-03-24T22:58:33.870Z,19.07
2018-03-24T23:01:01.332Z,17.13
2018-03-24T23:03:28.786Z,16.17
2018-03-24T23:05:56.253Z,15.33
2018-03-24T23:08:23.723Z,25.23
2018-03-24T23:10:51.169Z,13.23
2018-03-24T23:13:18.627Z,31.57
2018-03-24T23:15:46.081Z,15.90
2018-03-24T23:18:13.566Z,20.30
2018-03-24T23:20:41.800Z,16.33
2018-03-24T23:23:09.269Z,15.10
2018-03-24T23:25:36.738Z,22.83
2018-03-24T23:28:04.214Z,19.67
2018-03-24T23:30:32.442Z,13.03
2018-03-24T23:32:59.905Z,14.10
2018-03-24T23:35:27.378Z,17.57
2018-03-24T23:37:54.837Z,19.40
2018-03-24T23:40:22.290Z,17.30
2018-03-24T23:42:49.758Z,15.30
2018-03-24T23:45:17.217Z,19.37
2018-03-24T23:47:44.673Z,15.83
2018-03-24T23:50:12.131Z,15.67
2018-03-24T23:52:39.585Z,13.17
2018-03-24T23:55:07.045Z,19.60
2018-03-24T23:57:34.509Z,17.80
